Time;durP1;ratioP1;P1;durP2;ratioP2;P2;SDS_P1;SDS_P2;PMS_P1;PMS_P2;Temp;Humidity;BMP_temperature;BMP_pressure;BME280_temperature;BME280_humidity;BME280_pressure;Samples;Min_cycle;Max_cycle;Signal;HPM_P1;HPM_P2
2022/09/06 00:00:47;;;;;;;3.03;1.73;;;;;;;12.80;70.73;102073.59;2081583;28;20053;-71
2022/09/06 00:01:55;;;;;;;2.38;1.40;;;;;;;12.82;70.77;102076.88;2081510;28;20056;-71
2022/09/06 00:03:07;;;;;;;3.58;1.30;;;;;;;12.83;70.74;102076.63;2081404;28;20424;-71
2022/09/06 00:04:11;;;;;;;3.72;1.67;;;;;;;12.83;70.82;102078.50;2074131;28;20034;-71
2022/09/06 00:05:21;;;;;;;1.92;1.05;;;;;;;12.81;70.80;102080.66;2080884;28;20091;-72
2022/09/06 00:06:26;;;;;;;2.05;1.20;;;;;;;12.80;70.94;102073.59;2096378;28;20067;-71
2022/09/06 00:07:31;;;;;;;2.60;1.50;;;;;;;12.78;70.83;102079.28;2096065;28;20048;-71
2022/09/06 00:08:36;;;;;;;2.58;1.30;;;;;;;12.79;70.88;102075.50;2078871;28;20409;-71
2022/09/06 00:09:38;;;;;;;3.72;1.30;;;;;;;12.76;70.86;102079.50;2072492;28;20037;-71
2022/09/06 00:10:41;;;;;;;2.25;1.27;;;;;;;12.74;70.95;102070.88;2087447;28;20374;-71
2022/09/06 00:11:48;;;;;;;1.73;1.10;;;;;;;12.73;71.12;102071.94;2068347;28;20045;-71
2022/09/06 00:13:01;;;;;;;2.80;1.52;;;;;;;12.76;71.17;102070.59;2080845;28;20041;-71
2022/09/06 00:14:02;;;;;;;2.40;1.50;;;;;;;12.75;71.14;102072.50;2081107;28;20045;-71
2022/09/06 00:15:05;;;;;;;4.05;2.20;;;;;;;12.71;71.08;102071.38;2070997;28;20045;-71
2022/09/06 00:16:16;;;;;;;4.85;1.23;;;;;;;12.70;71.19;102074.31;2073188;28;20060;-71
2022/09/06 00:17:22;;;;;;;2.95;1.40;;;;;;;12.67;71.51;102074.84;2083709;28;20033;-71
2022/09/06 00:18:25;;;;;;;2.13;1.27;;;;;;;12.67;71.16;102070.28;2080260;28;20049;-71
2022/09/06 00:19:28;;;;;;;1.52;1.13;;;;;;;12.65;71.00;102071.59;2079757;28;20440;-71
2022/09/06 00:20:31;;;;;;;2.70;1.60;;;;;;;12.60;71.24;102064.25;2063499;28;20077;-72
2022/09/06 00:21:35;;;;;;;2.80;1.20;;;;;;;12.63;71.33;102074.53;2064838;28;20418;-71
2022/09/06 00:22:39;;;;;;;3.38;1.30;;;;;;;12.64;71.46;102075.34;2087558;28;20040;-71
2022/09/06 00:23:46;;;;;;;3.95;1.23;;;;;;;12.65;71.58;102072.41;2083998;28;20029;-71
2022/09/06 00:24:47;;;;;;;4.03;1.42;;;;;;;12.66;71.33;102079.44;2073034;28;20054;-71
2022/09/06 00:25:53;;;;;;;2.38;1.20;;;;;;;12.65;71.49;102077.81;2072114;28;20052;-71
2022/09/06 00:26:55;;;;;;;4.05;1.50;;;;;;;12.69;71.47;102078.09;2064399;28;20038;-71
2022/09/06 00:28:02;;;;;;;2.40;1.40;;;;;;;12.71;71.36;102075.97;2064831;28;20074;-72
2022/09/06 00:29:08;;;;;;;3.35;1.35;;;;;;;12.73;71.41;102080.03;2074056;28;20033;-71
2022/09/06 00:30:12;;;;;;;2.75;1.40;;;;;;;12.78;71.36;102079.28;2072688;28;20041;-71
2022/09/06 00:31:23;;;;;;;2.00;1.40;;;;;;;12.78;71.40;102073.06;2073936;28;20046;-71
2022/09/06 00:32:36;;;;;;;2.10;1.35;;;;;;;12.76;71.04;102079.50;2084184;28;20456;-70
2022/09/06 00:33:41;;;;;;;2.03;1.20;;;;;;;12.75;71.15;102072.50;2079465;28;20052;-71
2022/09/06 00:34:46;;;;;;;2.15;1.23;;;;;;;12.75;71.25;102077.91;2072803;28;20072;-71
2022/09/06 00:35:57;;;;;;;2.80;1.33;;;;;;;12.74;71.24;102073.56;2075637;28;20050;-72
2022/09/06 00:37:03;;;;;;;4.13;1.35;;;;;;;12.78;71.37;102070.38;2074992;28;20041;-72
2022/09/06 00:38:10;;;;;;;4.45;1.27;;;;;;;12.75;71.05;102077.91;2085833;28;20404;-72
2022/09/06 00:39:20;;;;;;;4.50;1.23;;;;;;;12.74;71.41;102072.78;2089063;28;20124;-72
2022/09/06 00:40:31;;;;;;;2.92;1.33;;;;;;;12.68;71.17;102071.91;2082211;28;20045;-72
2022/09/06 00:41:39;;;;;;;2.10;1.30;;;;;;;12.62;71.20;102072.91;2090833;28;20604;-72
2022/09/06 00:42:47;;;;;;;4.07;1.40;;;;;;;12.52;71.06;102072.81;2089933;28;20428;-71
2022/09/06 00:43:51;;;;;;;2.45;1.45;;;;;;;12.50;71.09;102069.56;2065822;28;20042;-72
2022/09/06 00:44:58;;;;;;;2.28;1.45;;;;;;;12.46;71.28;102063.84;2072949;28;20054;-72
2022/09/06 00:46:03;;;;;;;6.38;1.70;;;;;;;12.39;71.38;102063.25;2067308;28;20557;-72
2022/09/06 00:47:11;;;;;;;4.03;1.40;;;;;;;12.36;71.42;102068.31;2066270;28;20691;-71
2022/09/06 00:48:17;;;;;;;3.03;1.50;;;;;;;12.29;71.55;102063.97;2075103;28;20049;-71
2022/09/06 00:49:31;;;;;;;2.83;1.40;;;;;;;12.29;71.97;102063.97;2073701;28;20113;-71
2022/09/06 00:50:38;;;;;;;3.65;1.50;;;;;;;12.33;71.91;102061.56;2084299;28;20080;-71
2022/09/06 00:51:45;;;;;;;3.22;1.45;;;;;;;12.37;72.13;102070.78;2082336;28;20049;-71
2022/09/06 00:52:51;;;;;;;2.00;1.30;;;;;;;12.41;72.21;102060.28;2084945;28;20053;-71
2022/09/06 00:54:03;;;;;;;1.85;1.42;;;;;;;12.43;72.13;102067.06;2080560;28;20045;-71
2022/09/06 00:55:08;;;;;;;2.65;1.50;;;;;;;12.48;72.12;102067.13;2089429;28;20060;-72
2022/09/06 00:56:14;;;;;;;2.63;1.30;;;;;;;12.56;71.89;102057.75;2090379;28;20056;-72
2022/09/06 00:57:18;;;;;;;3.90;1.30;;;;;;;12.62;72.25;102061.31;2089149;28;20041;-72
2022/09/06 00:58:27;;;;;;;3.65;1.17;;;;;;;12.67;72.30;102062.19;2075302;28;20058;-72
2022/09/06 00:59:32;;;;;;;4.22;1.55;;;;;;;12.69;72.35;102061.91;2074376;28;20049;-72
2022/09/06 01:00:35;;;;;;;2.25;1.15;;;;;;;12.70;72.10;102060.84;2082229;28;20045;-71
2022/09/06 01:01:37;;;;;;;2.25;1.20;;;;;;;12.71;72.25;102063.28;2073633;28;20054;-71
2022/09/06 01:02:45;;;;;;;3.72;1.50;;;;;;;12.74;72.41;102053.88;2065914;28;20536;-71
2022/09/06 01:03:46;;;;;;;2.83;1.23;;;;;;;12.74;72.31;102065.47;2066919;28;20474;-72
2022/09/06 01:04:50;;;;;;;2.97;1.27;;;;;;;12.74;72.13;102054.69;2073227;28;20057;-71
2022/09/06 01:06:25;;;;;;;3.38;1.23;;;;;;;12.74;71.97;102057.38;2082242;28;20057;-71
2022/09/06 01:07:47;;;;;;;5.07;1.40;;;;;;;12.75;71.95;102056.31;2074445;28;20045;-71
2022/09/06 01:08:51;;;;;;;4.72;1.50;;;;;;;12.75;71.92;102056.31;2067423;28;20116;-71
2022/09/06 01:10:15;;;;;;;4.40;1.30;;;;;;;12.77;71.89;102066.88;2073188;28;20061;-72
2022/09/06 01:11:26;;;;;;;2.25;1.15;;;;;;;12.77;71.62;102061.47;2084767;28;20045;-72
2022/09/06 01:12:30;;;;;;;2.70;1.25;;;;;;;12.72;71.52;102061.41;2087096;28;20049;-71
2022/09/06 01:13:35;;;;;;;1.92;1.38;;;;;;;12.70;71.61;102064.38;2081575;28;20120;-71
2022/09/06 01:15:18;;;;;;;3.63;1.33;;;;;;;12.71;71.77;102063.28;2090680;28;20060;-71
2022/09/06 01:16:51;;;;;;;1.70;1.10;;;;;;;12.70;71.66;102063.53;2095026;28;20032;-71
2022/09/06 01:18:04;;;;;;;2.35;1.08;;;;;;;12.73;71.79;102069.22;2094822;28;20067;-71
2022/09/06 01:19:30;;;;;;;2.88;1.20;;;;;;;12.74;71.78;102070.88;2091766;28;20084;-71
2022/09/06 01:20:44;;;;;;;3.17;1.27;;;;;;;12.74;71.61;102072.78;2092887;28;20055;-70
2022/09/06 01:21:59;;;;;;;2.78;1.40;;;;;;;12.75;71.27;102069.81;2097915;28;20420;-71
2022/09/06 01:23:27;;;;;;;2.72;1.20;;;;;;;12.75;71.06;102066.28;2089773;28;20036;-70
2022/09/06 01:24:55;;;;;;;1.88;1.10;;;;;;;12.73;70.68;102071.94;2089605;28;20059;-72
2022/09/06 01:26:06;;;;;;;1.65;1.10;;;;;;;12.72;70.46;102062.22;2091260;28;20028;-70
2022/09/06 01:27:42;;;;;;;3.08;1.30;;;;;;;12.71;70.51;102070.59;2090109;28;20040;-70
2022/09/06 01:28:49;;;;;;;2.85;1.52;;;;;;;12.64;69.96;102068.09;2097621;28;20503;-70
2022/09/06 01:30:04;;;;;;;2.72;1.20;;;;;;;12.62;69.96;102070.22;2097565;28;20496;-71
2022/09/06 01:31:14;;;;;;;1.52;1.33;;;;;;;12.60;69.87;102068.84;2073505;28;20031;-70
2022/09/06 01:32:32;;;;;;;2.50;1.48;;;;;;;12.58;70.04;102058.31;2078073;28;20050;-71
2022/09/06 01:33:42;;;;;;;3.78;1.30;;;;;;;12.51;69.73;102069.31;2091730;28;20052;-70
2022/09/06 01:34:51;;;;;;;2.88;1.63;;;;;;;12.51;69.73;102065.78;2073072;28;20052;-70
2022/09/06 01:36:18;;;;;;;1.75;1.08;;;;;;;12.48;70.36;102068.97;2069003;28;20039;-70
2022/09/06 01:37:23;;;;;;;2.05;1.30;;;;;;;12.50;70.46;102061.47;2082789;28;20041;-71
2022/09/06 01:38:30;;;;;;;1.75;1.30;;;;;;;12.47;70.69;102064.66;2093222;28;20427;-70
2022/09/06 01:39:40;;;;;;;2.47;1.30;;;;;;;12.46;70.90;102061.16;2096079;28;20044;-70
2022/09/06 01:40:46;;;;;;;3.30;1.40;;;;;;;12.47;70.76;102062.78;2096757;28;20052;-70
2022/09/06 01:41:52;;;;;;;2.20;1.40;;;;;;;12.47;70.87;102061.97;2088650;28;20045;-70
2022/09/06 01:42:59;;;;;;;1.77;1.10;;;;;;;12.43;70.66;102071.66;2082651;28;20064;-70
2022/09/06 01:44:08;;;;;;;2.28;1.13;;;;;;;12.46;70.81;102069.25;2082757;28;20049;-71
2022/09/06 01:45:17;;;;;;;3.85;1.40;;;;;;;12.46;70.99;102063.06;2087231;28;20040;-71
2022/09/06 01:46:43;;;;;;;2.17;1.52;;;;;;;12.48;71.02;102067.13;2090618;28;20041;-69
2022/09/06 01:48:26;;;;;;;3.92;1.98;;;;;;;12.48;70.51;102067.13;2088284;28;20040;-70
2022/09/06 01:49:38;;;;;;;3.35;1.67;;;;;;;12.48;70.30;102071.69;2084842;28;20049;-71
2022/09/06 01:50:52;;;;;;;2.33;1.73;;;;;;;12.48;70.14;102077.06;2074679;28;20069;-70
2022/09/06 01:52:23;;;;;;;2.53;1.30;;;;;;;12.51;70.03;102073.88;2082893;28;20447;-71
2022/09/06 01:53:59;;;;;;;3.70;1.63;;;;;;;12.50;69.85;102086.56;2091944;28;20388;-71
2022/09/06 01:55:21;;;;;;;4.60;1.70;;;;;;;12.48;70.27;102077.91;2093540;28;20055;-72
2022/09/06 01:56:52;;;;;;;2.75;1.45;;;;;;;12.47;70.16;102086.25;2083658;28;20045;-71
2022/09/06 01:58:13;;;;;;;6.03;2.13;;;;;;;12.47;70.26;102086.25;2081907;28;20059;-71
2022/09/06 01:59:42;;;;;;;2.65;1.60;;;;;;;12.46;70.35;102084.63;2075120;28;20056;-71
2022/09/06 02:00:55;;;;;;;2.50;1.50;;;;;;;12.45;70.42;102082.97;2080600;28;20499;-71
2022/09/06 02:02:25;;;;;;;3.20;1.67;;;;;;;12.47;70.76;102078.16;2074340;28;20046;-71
2022/09/06 02:03:40;;;;;;;2.03;1.50;;;;;;;12.48;70.68;102077.06;2076699;28;20416;-71
2022/09/06 02:04:50;;;;;;;4.05;1.50;;;;;;;12.50;70.61;102077.66;2083785;28;20064;-70
2022/09/06 02:06:04;;;;;;;4.13;1.65;;;;;;;12.50;70.49;102080.34;2080973;28;20038;-70
2022/09/06 02:07:19;;;;;;;2.95;1.50;;;;;;;12.51;70.87;102079.28;2074366;28;20041;-71
2022/09/06 02:08:51;;;;;;;3.03;1.40;;;;;;;12.53;70.74;102075.25;2080209;28;20048;-70
2022/09/06 02:10:06;;;;;;;2.67;1.40;;;;;;;12.55;70.85;102074.19;2078233;28;20060;-70
2022/09/06 02:11:14;;;;;;;4.05;1.50;;;;;;;12.57;70.95;102080.16;2071563;28;20050;-71
2022/09/06 02:12:21;;;;;;;3.95;1.55;;;;;;;12.56;71.28;102073.94;2081917;28;20033;-70
2022/09/06 02:13:29;;;;;;;6.72;1.83;;;;;;;12.60;71.28;102079.63;2089883;28;20052;-70
2022/09/06 02:14:38;;;;;;;2.28;1.38;;;;;;;12.63;71.45;102071.03;2081137;28;20042;-70
2022/09/06 02:16:07;;;;;;;3.05;1.15;;;;;;;12.68;71.62;102073.78;2068068;28;20386;-69
2022/09/06 02:17:14;;;;;;;1.95;1.23;;;;;;;12.69;71.69;102072.72;2070665;28;20156;-69
2022/09/06 02:18:26;;;;;;;5.30;1.38;;;;;;;12.71;71.75;102079.47;2075197;28;20049;-70
2022/09/06 02:20:04;;;;;;;7.03;1.73;;;;;;;12.72;71.69;102073.00;2082117;28;20049;-71
2022/09/06 02:21:15;;;;;;;3.03;1.77;;;;;;;12.74;71.85;102086.25;2095448;28;20059;-71
2022/09/06 02:22:23;;;;;;;3.60;1.70;;;;;;;12.72;71.56;102074.91;2096822;28;20044;-72
2022/09/06 02:23:29;;;;;;;2.85;1.70;;;;;;;12.72;72.14;102075.72;2094880;28;20037;-71
2022/09/06 02:24:39;;;;;;;4.30;2.10;;;;;;;12.73;72.02;102074.63;2082509;28;20056;-72
2022/09/06 02:25:50;;;;;;;4.53;1.92;;;;;;;12.74;72.11;102076.28;2081527;28;20056;-72
2022/09/06 02:26:52;;;;;;;3.78;1.60;;;;;;;12.73;72.02;102079.22;2082928;28;20064;-71
2022/09/06 02:27:58;;;;;;;4.97;1.65;;;;;;;12.74;71.97;102081.69;2084552;28;20051;-70
2022/09/06 02:29:04;;;;;;;2.60;1.70;;;;;;;12.74;71.91;102078.16;2089222;28;20481;-70
2022/09/06 02:30:13;;;;;;;4.75;1.42;;;;;;;12.75;72.15;102077.91;2082157;28;20072;-71
2022/09/06 02:31:31;;;;;;;3.13;1.30;;;;;;;12.78;72.08;102075.78;2075987;28;20041;-70
2022/09/06 02:32:46;;;;;;;4.32;1.60;;;;;;;12.79;71.95;102077.38;2083519;28;20485;-70
2022/09/06 02:33:51;;;;;;;2.45;1.58;;;;;;;12.79;71.85;102072.78;2082811;28;20040;-71
2022/09/06 02:34:56;;;;;;;2.45;1.67;;;;;;;12.79;71.83;102080.09;2089223;28;20639;-71
2022/09/06 02:36:06;;;;;;;2.58;1.45;;;;;;;12.79;71.81;102075.50;2064456;28;20038;-70
2022/09/06 02:37:11;;;;;;;5.20;1.30;;;;;;;12.79;71.87;102077.38;2067802;28;20053;-71
2022/09/06 02:38:15;;;;;;;4.63;1.77;;;;;;;12.79;71.88;102077.38;2081058;28;20471;-71
2022/09/06 02:39:20;;;;;;;3.40;1.70;;;;;;;12.75;71.77;102080.59;2080377;28;20067;-71
2022/09/06 02:40:21;;;;;;;6.65;1.90;;;;;;;12.74;71.83;102081.69;2081193;28;20029;-70
2022/09/06 02:41:24;;;;;;;4.10;1.80;;;;;;;12.75;71.72;102077.91;2067310;28;20064;-70
2022/09/06 02:42:32;;;;;;;5.38;2.05;;;;;;;12.78;71.83;102075.78;2068501;28;20041;-71
2022/09/06 02:43:41;;;;;;;5.80;1.95;;;;;;;12.78;71.60;102076.56;2081800;28;20050;-71
2022/09/06 02:44:45;;;;;;;3.80;1.88;;;;;;;12.79;71.55;102077.38;2089625;28;20049;-71
2022/09/06 02:45:50;;;;;;;6.25;2.30;;;;;;;12.78;71.44;102075.78;2081150;28;20378;-71
2022/09/06 02:46:57;;;;;;;2.63;1.75;;;;;;;12.81;71.61;102080.66;2089352;28;20835;-71
2022/09/06 02:48:05;;;;;;;4.18;2.00;;;;;;;12.82;71.67;102079.56;2097029;28;20040;-71
2022/09/06 02:49:13;;;;;;;2.75;1.80;;;;;;;12.81;71.48;102078.75;2080628;28;20041;-71
2022/09/06 02:50:15;;;;;;;8.30;2.20;;;;;;;12.82;71.40;102077.69;2082843;28;20034;-71
2022/09/06 02:51:18;;;;;;;3.67;1.88;;;;;;;12.81;71.32;102076.06;2071785;28;20041;-71
2022/09/06 02:52:28;;;;;;;6.80;2.20;;;;;;;12.82;71.47;102076.88;2071801;28;20033;-70
2022/09/06 02:53:30;;;;;;;3.88;1.70;;;;;;;12.86;71.38;102072.59;2088872;28;20464;-70
2022/09/06 02:54:33;;;;;;;2.67;1.45;;;;;;;12.87;71.53;102083.13;2079055;28;20370;-71
2022/09/06 02:55:37;;;;;;;5.10;1.90;;;;;;;12.87;71.59;102071.53;2064966;28;20351;-71
2022/09/06 02:56:44;;;;;;;5.07;2.10;;;;;;;12.90;71.50;102079.13;2086825;28;20032;-71
2022/09/06 02:57:49;;;;;;;3.45;1.77;;;;;;;12.88;71.67;102075.84;2096216;28;20487;-71
2022/09/06 02:58:58;;;;;;;6.20;1.48;;;;;;;12.87;72.09;102075.03;2088707;28;20044;-71
2022/09/06 03:00:05;;;;;;;2.55;1.20;;;;;;;12.85;72.34;102081.75;2080634;28;20037;-71
2022/09/06 03:01:08;;;;;;;4.22;1.58;;;;;;;12.86;72.41;102084.22;2064795;28;20069;-72
2022/09/06 03:02:10;;;;;;;3.75;1.58;;;;;;;12.89;72.46;102075.63;2064534;28;20046;-71
2022/09/06 03:03:15;;;;;;;4.72;1.40;;;;;;;12.90;72.56;102077.22;2080623;28;20037;-71
2022/09/06 03:04:17;;;;;;;3.45;1.45;;;;;;;12.90;72.44;102077.22;2072303;28;20428;-72
2022/09/06 03:05:22;;;;;;;3.13;1.50;;;;;;;12.92;72.73;102076.97;2064432;28;20057;-71
2022/09/06 03:06:26;;;;;;;2.63;1.50;;;;;;;12.93;72.77;102073.22;2057146;28;20449;-71
2022/09/06 03:07:28;;;;;;;3.83;1.60;;;;;;;12.94;72.94;102070.25;2064831;28;20053;-71
2022/09/06 03:08:33;;;;;;;2.63;1.30;;;;;;;12.94;73.03;102067.53;2083785;28;20029;-71
2022/09/06 03:09:35;;;;;;;3.35;1.35;;;;;;;12.95;73.09;102071.03;2072953;28;20080;-71
2022/09/06 03:10:40;;;;;;;5.07;1.50;;;;;;;12.97;73.35;102075.13;2089064;28;20040;-71
2022/09/06 03:11:50;;;;;;;2.83;1.40;;;;;;;12.99;73.33;102066.78;2095100;28;20048;-70
2022/09/06 03:12:52;;;;;;;3.63;1.40;;;;;;;13.01;73.58;102070.03;2088070;28;20051;-71
2022/09/06 03:14:04;;;;;;;3.22;1.10;;;;;;;13.01;73.56;102067.31;2074736;28;20525;-71
2022/09/06 03:15:10;;;;;;;3.05;1.20;;;;;;;13.02;73.97;102077.06;2073332;28;20113;-71
2022/09/06 03:16:15;;;;;;;1.95;0.98;;;;;;;13.04;74.09;102074.09;2080729;28;20041;-71
2022/09/06 03:17:20;;;;;;;1.75;1.00;;;;;;;13.04;74.23;102077.59;2073836;28;20386;-71
2022/09/06 03:18:24;;;;;;;1.55;0.90;;;;;;;13.05;74.31;102081.13;2081416;28;20037;-71
2022/09/06 03:19:33;;;;;;;2.72;0.90;;;;;;;13.06;74.42;102075.47;2089872;28;20036;-70
2022/09/06 03:20:36;;;;;;;5.78;1.45;;;;;;;13.07;74.64;102084.38;2088305;28;20049;-70
2022/09/06 03:21:39;;;;;;;3.28;1.60;;;;;;;13.05;74.92;102090.06;2072750;28;20053;-71
2022/09/06 03:22:46;;;;;;;3.97;1.15;;;;;;;13.03;75.22;102083.28;2082273;28;20061;-71
2022/09/06 03:23:55;;;;;;;2.17;1.45;;;;;;;13.01;75.34;102077.31;2080965;28;20057;-71
2022/09/06 03:24:57;;;;;;;2.60;1.00;;;;;;;13.00;75.58;102084.59;2081366;28;20416;-72
2022/09/06 03:25:59;;;;;;;2.42;1.17;;;;;;;12.97;75.86;102077.81;2072412;28;20053;-70
2022/09/06 03:27:01;;;;;;;2.83;1.17;;;;;;;12.96;76.16;102084.31;2073014;28;20041;-71
2022/09/06 03:28:04;;;;;;;2.20;1.08;;;;;;;12.93;76.27;102074.03;2092354;28;20048;-71
2022/09/06 03:29:11;;;;;;;2.38;1.08;;;;;;;12.90;76.67;102073.72;2088592;28;20505;-71
2022/09/06 03:30:16;;;;;;;2.20;1.00;;;;;;;12.91;76.84;102076.16;2071853;28;20046;-71
2022/09/06 03:31:19;;;;;;;1.92;1.30;;;;;;;12.90;77.19;102071.03;2067524;28;20077;-70
2022/09/06 03:32:25;;;;;;;1.85;1.10;;;;;;;12.88;77.56;102060.47;2082009;28;20053;-71
2022/09/06 03:33:31;;;;;;;3.28;1.15;;;;;;;12.90;77.69;102062.94;2072830;28;20053;-71
2022/09/06 03:34:35;;;;;;;2.33;1.15;;;;;;;12.91;77.91;102069.94;2064282;28;20054;-70
2022/09/06 03:35:47;;;;;;;1.30;0.98;;;;;;;12.90;78.02;102057.53;2057498;28;20055;-70
2022/09/06 03:36:49;;;;;;;3.53;1.33;;;;;;;12.91;78.19;102061.84;2066715;28;20046;-70
2022/09/06 03:37:52;;;;;;;4.38;1.10;;;;;;;12.89;78.40;102061.28;2064094;28;20062;-71
2022/09/06 03:39:00;;;;;;;1.92;1.10;;;;;;;12.87;78.64;102058.03;2066126;28;20548;-70
2022/09/06 03:40:11;;;;;;;4.70;1.13;;;;;;;12.86;78.85;102064.47;2094261;28;20764;-71
2022/09/06 03:41:16;;;;;;;6.43;1.85;;;;;;;12.86;79.04;102062.63;2087468;28;20444;-71
2022/09/06 03:42:25;;;;;;;2.10;1.20;;;;;;;12.90;79.28;102068.31;2080961;28;20045;-70
2022/09/06 03:43:27;;;;;;;2.58;1.30;;;;;;;12.91;79.33;102062.66;2073017;28;20054;-71
2022/09/06 03:44:38;;;;;;;2.45;1.05;;;;;;;12.95;79.45;102065.66;2064300;28;20101;-70
2022/09/06 03:45:48;;;;;;;2.38;1.70;;;;;;;12.97;79.51;102068.91;2080049;28;20041;-70
2022/09/06 03:46:52;;;;;;;2.22;1.17;;;;;;;13.01;79.73;102061.91;2088296;28;20037;-72
2022/09/06 03:47:56;;;;;;;2.60;1.10;;;;;;;13.04;79.72;102069.50;2071610;28;20667;-72
2022/09/06 03:49:00;;;;;;;2.13;1.20;;;;;;;13.06;79.81;102071.97;2056730;28;20054;-72
2022/09/06 03:50:03;;;;;;;1.52;1.20;;;;;;;13.06;79.86;102064.66;2056166;28;20069;-71
2022/09/06 03:51:05;;;;;;;2.08;1.15;;;;;;;13.07;80.09;102062.78;2064356;28;20190;-72
2022/09/06 03:52:08;;;;;;;1.75;1.10;;;;;;;13.08;80.04;102067.94;2072637;28;20050;-74
2022/09/06 03:53:17;;;;;;;1.58;1.10;;;;;;;13.07;80.29;102066.28;2079951;28;20049;-72
2022/09/06 03:54:23;;;;;;;2.35;1.20;;;;;;;13.10;80.38;102065.78;2057534;28;20038;-72
2022/09/06 03:55:29;;;;;;;1.83;0.98;;;;;;;13.10;80.34;102068.47;2080048;28;20057;-73
2022/09/06 03:56:31;;;;;;;3.17;1.15;;;;;;;13.10;80.40;102067.66;2087603;28;20500;-72
2022/09/06 03:57:34;;;;;;;2.13;1.17;;;;;;;13.10;80.57;102060.38;2079760;28;20053;-72
2022/09/06 03:58:36;;;;;;;1.88;1.13;;;;;;;13.09;80.60;102066.84;2088744;28;20052;-72
2022/09/06 03:59:39;;;;;;;2.58;1.00;;;;;;;13.08;80.73;102059.84;2080079;28;20465;-73
2022/09/06 04:00:46;;;;;;;3.35;1.15;;;;;;;13.09;80.71;102061.44;2088406;28;20064;-73
2022/09/06 04:01:53;;;;;;;1.40;1.05;;;;;;;13.09;80.85;102056.06;2096557;28;20504;-73
2022/09/06 04:02:58;;;;;;;3.00;1.35;;;;;;;13.10;80.67;102057.66;2088337;28;20604;-73
2022/09/06 04:04:03;;;;;;;1.45;1.00;;;;;;;13.11;80.64;102055.78;2087859;28;20535;-74
2022/09/06 04:05:15;;;;;;;1.92;1.23;;;;;;;13.08;80.81;102054.44;2089131;28;20389;-73
2022/09/06 04:06:20;;;;;;;1.85;1.00;;;;;;;13.11;80.56;102064.69;2081193;28;20041;-73
2022/09/06 04:07:24;;;;;;;1.60;0.95;;;;;;;13.12;80.72;102060.13;2089128;28;20059;-73
2022/09/06 04:08:31;;;;;;;4.00;1.10;;;;;;;13.12;80.66;102060.94;2085507;28;20065;-73
2022/09/06 04:09:38;;;;;;;1.00;0.82;;;;;;;13.12;80.53;102060.94;2079805;28;20041;-72
2022/09/06 04:10:44;;;;;;;3.60;0.98;;;;;;;13.13;80.72;102061.75;2073305;28;20061;-73
2022/09/06 04:11:50;;;;;;;1.63;1.10;;;;;;;13.15;80.83;102060.41;2088060;28;20052;-74
2022/09/06 04:12:59;;;;;;;1.98;0.80;;;;;;;13.15;80.83;102056.91;2095772;28;20036;-74
2022/09/06 04:14:02;;;;;;;2.28;1.08;;;;;;;13.15;80.86;102062.31;2088623;28;20546;-74
2022/09/06 04:15:11;;;;;;;1.63;0.75;;;;;;;13.13;81.00;102062.56;2089249;28;20484;-74
2022/09/06 04:16:19;;;;;;;2.17;1.00;;;;;;;13.15;80.84;102060.41;2088218;28;20438;-75
2022/09/06 04:17:22;;;;;;;1.73;0.85;;;;;;;13.15;80.97;102056.91;2057517;28;20049;-75
2022/09/06 04:18:25;;;;;;;1.92;1.10;;;;;;;13.14;81.11;102064.19;2064712;28;20407;-73
2022/09/06 04:19:29;;;;;;;1.67;0.93;;;;;;;13.15;81.03;102059.63;2096638;28;20041;-73
2022/09/06 04:20:33;;;;;;;2.10;0.80;;;;;;;13.17;81.20;102055.56;2087529;28;20048;-74
2022/09/06 04:21:35;;;;;;;1.63;1.08;;;;;;;13.17;81.06;102060.16;2063789;28;20053;-74
2022/09/06 04:22:40;;;;;;;1.42;1.05;;;;;;;13.16;80.95;102055.81;2057725;28;20042;-73
2022/09/06 04:23:46;;;;;;;4.28;0.90;;;;;;;13.15;80.84;102056.91;2071918;28;20401;-73
2022/09/06 04:24:54;;;;;;;4.18;0.88;;;;;;;13.12;80.96;102060.94;2063476;28;20678;-73
2022/09/06 04:25:59;;;;;;;6.55;0.98;;;;;;;13.10;80.79;102057.66;2089297;28;20440;-74
2022/09/06 04:27:01;;;;;;;2.17;0.98;;;;;;;13.10;80.75;102063.06;2078556;28;20124;-73
2022/09/06 04:28:08;;;;;;;1.30;1.10;;;;;;;13.09;80.65;102060.66;2066605;28;20038;-73
2022/09/06 04:29:23;;;;;;;1.45;1.05;;;;;;;13.11;80.61;102059.28;2081270;28;20041;-74
2022/09/06 04:30:30;;;;;;;3.03;0.90;;;;;;;13.12;80.69;102060.94;2083566;28;20037;-75
2022/09/06 04:31:35;;;;;;;1.00;0.82;;;;;;;13.13;80.63;102062.56;2088470;28;20041;-75
2022/09/06 04:32:42;;;;;;;2.55;1.17;;;;;;;13.13;80.63;102062.56;2094822;28;20048;-72
2022/09/06 04:33:52;;;;;;;2.55;0.90;;;;;;;13.14;80.77;102061.47;2071291;28;20058;-72
2022/09/06 04:34:56;;;;;;;1.50;0.98;;;;;;;13.16;80.80;102062.03;2066091;28;20046;-72
2022/09/06 04:36:00;;;;;;;1.42;0.90;;;;;;;13.16;80.64;102062.03;2079255;28;20049;-71
2022/09/06 04:37:10;;;;;;;;;;;;;;;13.16;80.65;102056.63;2081161;28;20447;-72
2022/09/06 04:38:13;;;;;;;2.15;1.00;;;;;;;13.18;80.69;102064.50;2080167;28;19923;-72
2022/09/06 04:39:17;;;;;;;2.67;0.90;;;;;;;13.18;80.47;102061.78;2088484;28;20052;-71
2022/09/06 04:40:27;;;;;;;1.73;1.10;;;;;;;13.18;80.12;102064.50;2093790;28;20435;-72
2022/09/06 04:41:30;;;;;;;1.10;0.90;;;;;;;13.17;80.09;102066.34;2087819;28;20045;-72
2022/09/06 04:42:38;;;;;;;3.00;1.40;;;;;;;13.18;80.32;102070.72;2093998;28;20051;-73
2022/09/06 04:43:42;;;;;;;2.50;1.20;;;;;;;13.20;80.42;102065.84;2070535;28;20057;-74
2022/09/06 04:44:46;;;;;;;4.88;1.58;;;;;;;13.21;80.39;102067.50;2062538;28;20162;-74
2022/09/06 04:45:55;;;;;;;1.92;1.20;;;;;;;13.22;80.36;102066.41;2084336;28;20037;-74
2022/09/06 04:47:24;;;;;;;2.78;1.40;;;;;;;13.23;80.46;102065.31;2086742;28;20060;-77
2022/09/06 04:48:28;;;;;;;3.33;1.10;;;;;;;13.25;80.75;102069.72;2074476;28;20064;-73
2022/09/06 04:49:31;;;;;;;3.40;1.38;;;;;;;13.27;80.72;102067.53;2071502;28;20053;-73
2022/09/06 04:50:40;;;;;;;1.75;1.40;;;;;;;13.27;80.89;102067.53;2081983;28;20065;-72
2022/09/06 04:51:45;;;;;;;2.53;1.30;;;;;;;13.30;80.84;102075.13;2078607;28;20042;-74
2022/09/06 04:52:53;;;;;;;3.92;1.38;;;;;;;13.30;80.87;102067.84;2071110;28;20042;-72
2022/09/06 04:54:02;;;;;;;5.63;1.20;;;;;;;13.32;81.03;102067.59;2085782;28;20044;-73
2022/09/06 04:55:09;;;;;;;1.67;0.90;;;;;;;13.34;81.10;102073.56;2086719;28;20045;-73
2022/09/06 04:56:15;;;;;;;1.80;1.27;;;;;;;13.36;80.87;102065.97;2058569;28;20447;-73
2022/09/06 04:57:24;;;;;;;1.75;1.25;;;;;;;13.38;81.06;102066.53;2067190;28;20038;-73
2022/09/06 04:58:31;;;;;;;1.27;1.00;;;;;;;13.40;81.22;102067.13;2079003;28;20050;-73
2022/09/06 04:59:39;;;;;;;2.00;1.20;;;;;;;13.42;81.25;102071.16;2079248;28;20048;-73
2022/09/06 05:00:46;;;;;;;;;;;;;;;13.44;81.22;102073.63;2079075;28;20408;-73
2022/09/06 05:01:53;;;;;;;1.40;1.08;;;;;;;13.46;81.34;102066.03;2079349;28;20770;-73
2022/09/06 05:03:02;;;;;;;3.63;1.20;;;;;;;13.48;81.43;102063.91;2086725;28;20127;-73
2022/09/06 05:04:07;;;;;;;2.88;1.10;;;;;;;13.47;81.46;102056.88;2086672;28;20053;-73
2022/09/06 05:05:26;;;;;;;2.00;1.42;;;;;;;13.47;81.40;102062.28;2071577;28;20121;-73
2022/09/06 05:06:31;;;;;;;2.72;0.95;;;;;;;13.47;81.56;102065.00;2066763;28;20053;-73
2022/09/06 05:07:38;;;;;;;1.38;1.02;;;;;;;13.49;81.69;102057.41;2055237;28;20046;-76
2022/09/06 05:08:43;;;;;;;1.73;0.95;;;;;;;13.49;81.48;102064.72;2076662;28;20052;-78
2022/09/06 05:09:45;;;;;;;1.45;1.00;;;;;;;13.51;81.85;102057.16;2086614;28;20091;-79
2022/09/06 05:10:51;;;;;;;1.67;0.90;;;;;;;13.51;81.83;102057.97;2070216;28;20045;-76
2022/09/06 05:12:01;;;;;;;1.42;0.80;;;;;;;13.52;81.45;102054.19;2085891;28;20045;-75
2022/09/06 05:13:04;;;;;;;1.13;0.90;;;;;;;13.53;81.75;102063.94;2083502;28;20053;-75
2022/09/06 05:14:08;;;;;;;0.70;0.70;;;;;;;13.52;81.60;102058.78;2078402;28;20068;-75
2022/09/06 05:15:13;;;;;;;1.38;0.73;;;;;;;13.38;82.17;102067.34;2063670;28;20490;-75
2022/09/06 05:16:20;;;;;;;1.15;0.88;;;;;;;13.32;81.80;102062.19;2079221;28;20084;-78
2022/09/06 05:17:28;;;;;;;1.63;0.70;;;;;;;13.29;81.79;102065.41;2078331;28;20045;-76
2022/09/06 05:18:34;;;;;;;1.35;0.80;;;;;;;13.43;81.28;102061.19;2062760;28;20050;-77
2022/09/06 05:19:39;;;;;;;0.95;0.82;;;;;;;13.53;80.71;102057.72;2071409;28;20053;-75